Aviation Digital Data Service (ADDS)

Output produced by METARs form (1818 UTC 18 April 2019)
found at http://www.aviationweather.gov/metar/data/
 
METAR text: LIED 181755Z 11012KT 9999 FEW035 16/15 Q1017 RMK SCT VIS MIN 9999 WIND THR35 /////KT WIND THR17 /////KT BLU
Conditions at: LIED (DECIMOMANNU(IT-A, IT) observed 1755 UTC 18 April 2019
Temperature: 16.0°C (61°F)
Dewpoint: 15.0°C (59°F) [RH = 94%]
Pressure (altimeter): 30.03 inches Hg (1017.0 mb)
Winds: from the ESE (110 degrees) at 14 MPH (12 knots; 6.2 m/s)
Visibility: 6 or more miles (10+ km)
Ceiling: at least 12,000 feet AGL
Clouds: few clouds at 3500 feet AGL
Weather: no significant weather observed at this time

METAR text: LIED 181655Z 11010KT 9999 FEW025 18/15 Q1017 RMK FEW VIS MIN 9999 WIND THR35 /////KT WIND THR17 /////KT BLU
Conditions at: LIED (DECIMOMANNU(IT-A, IT) observed 1655 UTC 18 April 2019
Temperature: 18.0°C (64°F)
Dewpoint: 15.0°C (59°F) [RH = 83%]
Pressure (altimeter): 30.03 inches Hg (1017.0 mb)
Winds: from the ESE (110 degrees) at 12 MPH (10 knots; 5.1 m/s)
Visibility: 6 or more miles (10+ km)
Ceiling: at least 12,000 feet AGL
Clouds: few clouds at 2500 feet AGL
Weather: no significant weather observed at this time

METAR text: LIED 181555Z 12015KT 9999 FEW025 19/15 Q1017 RMK FEW VIS MIN 9999 WIND THR35 /////KT WIND THR17 /////KT BLU
Conditions at: LIED (DECIMOMANNU(IT-A, IT) observed 1555 UTC 18 April 2019
Temperature: 19.0°C (66°F)
Dewpoint: 15.0°C (59°F) [RH = 78%]
Pressure (altimeter): 30.03 inches Hg (1017.0 mb)
Winds: from the ESE (120 degrees) at 17 MPH (15 knots; 7.7 m/s)
Visibility: 6 or more miles (10+ km)
Ceiling: at least 12,000 feet AGL
Clouds: few clouds at 2500 feet AGL
Weather: no significant weather observed at this time

METAR text: LIED 181455Z 10012KT 9999 FEW025 19/15 Q1017 RMK BKN BKN200 VIS MIN 9999 WIND THR35 /////KT WIND THR17 /////KT BLU
Conditions at: LIED (DECIMOMANNU(IT-A, IT) observed 1455 UTC 18 April 2019
Temperature: 19.0°C (66°F)
Dewpoint: 15.0°C (59°F) [RH = 78%]
Pressure (altimeter): 30.03 inches Hg (1017.0 mb)
Winds: from the E (100 degrees) at 14 MPH (12 knots; 6.2 m/s)
Visibility: 6 or more miles (10+ km)
Ceiling: at least 12,000 feet AGL
Clouds: few clouds at 2500 feet AGL
Weather: no significant weather observed at this time

METAR text: LIED 181355Z 12013KT 9999 FEW025 19/13 Q1016 RMK BKN SCT100 BKN200 VIS MIN 9999 WIND THR35 /////KT WIND THR17 /////KT BLU
Conditions at: LIED (DECIMOMANNU(IT-A, IT) observed 1355 UTC 18 April 2019
Temperature: 19.0°C (66°F)
Dewpoint: 13.0°C (55°F) [RH = 68%]
Pressure (altimeter): 30.00 inches Hg (1016.0 mb)
Winds: from the ESE (120 degrees) at 15 MPH (13 knots; 6.7 m/s)
Visibility: 6 or more miles (10+ km)
Ceiling: at least 12,000 feet AGL
Clouds: few clouds at 2500 feet AGL
Weather: no significant weather observed at this time

METAR text: LIED 181255Z 13013KT 9999 FEW025 20/13 Q1017 RMK BKN SCT100 BKN200 VIS MIN 9999 WIND THR35 /////KT WIND THR17 /////KT BLU
Conditions at: LIED (DECIMOMANNU(IT-A, IT) observed 1255 UTC 18 April 2019
Temperature: 20.0°C (68°F)
Dewpoint: 13.0°C (55°F) [RH = 64%]
Pressure (altimeter): 30.03 inches Hg (1017.0 mb)
Winds: from the SE (130 degrees) at 15 MPH (13 knots; 6.7 m/s)
Visibility: 6 or more miles (10+ km)
Ceiling: at least 12,000 feet AGL
Clouds: few clouds at 2500 feet AGL
Weather: no significant weather observed at this time

METAR text: LIED 181155Z 12013KT 9999 FEW025 20/13 Q1017 RMK BKN SCT100 BKN200 VIS MIN 9999 WIND THR35 /////KT WIND THR17 /////KT BLU
Conditions at: LIED (DECIMOMANNU(IT-A, IT) observed 1155 UTC 18 April 2019
Temperature: 20.0°C (68°F)
Dewpoint: 13.0°C (55°F) [RH = 64%]
Pressure (altimeter): 30.03 inches Hg (1017.0 mb)
Winds: from the ESE (120 degrees) at 15 MPH (13 knots; 6.7 m/s)
Visibility: 6 or more miles (10+ km)
Ceiling: at least 12,000 feet AGL
Clouds: few clouds at 2500 feet AGL
Weather: no significant weather observed at this time

METAR text: LIED 181055Z 11014KT 9999 FEW025 20/13 Q1018 RMK BKN SCT100 BKN200 VIS MIN 9999 WIND THR35 /////KT WIND THR17 /////KT BLU
Conditions at: LIED (DECIMOMANNU(IT-A, IT) observed 1055 UTC 18 April 2019
Temperature: 20.0°C (68°F)
Dewpoint: 13.0°C (55°F) [RH = 64%]
Pressure (altimeter): 30.06 inches Hg (1018.0 mb)
Winds: from the ESE (110 degrees) at 16 MPH (14 knots; 7.2 m/s)
Visibility: 6 or more miles (10+ km)
Ceiling: at least 12,000 feet AGL
Clouds: few clouds at 2500 feet AGL
Weather: no significant weather observed at this time

METAR text: LIED 180955Z 12013KT 9999 FEW025 20/13 Q1017 RMK SCT SCT100 VIS MIN 9999 WIND THR35 /////KT WIND THR17 /////KT BLU
Conditions at: LIED (DECIMOMANNU(IT-A, IT) observed 0955 UTC 18 April 2019
Temperature: 20.0°C (68°F)
Dewpoint: 13.0°C (55°F) [RH = 64%]
Pressure (altimeter): 30.03 inches Hg (1017.0 mb)
Winds: from the ESE (120 degrees) at 15 MPH (13 knots; 6.7 m/s)
Visibility: 6 or more miles (10+ km)
Ceiling: at least 12,000 feet AGL
Clouds: few clouds at 2500 feet AGL
Weather: no significant weather observed at this time

METAR text: LIED 180855Z 12011KT 9999 FEW025 18/14 Q1019 RMK SCT SCT100 VIS MIN 9999 WIND THR35 /////KT WIND THR17 /////KT BLU
Conditions at: LIED (DECIMOMANNU(IT-A, IT) observed 0855 UTC 18 April 2019
Temperature: 18.0°C (64°F)
Dewpoint: 14.0°C (57°F) [RH = 77%]
Pressure (altimeter): 30.09 inches Hg (1019.0 mb)
Winds: from the ESE (120 degrees) at 13 MPH (11 knots; 5.7 m/s)
Visibility: 6 or more miles (10+ km)
Ceiling: at least 12,000 feet AGL
Clouds: few clouds at 2500 feet AGL
Weather: no significant weather observed at this time

METAR text: LIED 180755Z 13012KT 9999 FEW025 17/15 Q1019 RMK SCT SCT100 VIS MIN 9999 WIND THR35 /////KT WIND THR17 /////KT BLU
Conditions at: LIED (DECIMOMANNU(IT-A, IT) observed 0755 UTC 18 April 2019
Temperature: 17.0°C (63°F)
Dewpoint: 15.0°C (59°F) [RH = 88%]
Pressure (altimeter): 30.09 inches Hg (1019.0 mb)
Winds: from the SE (130 degrees) at 14 MPH (12 knots; 6.2 m/s)
Visibility: 6 or more miles (10+ km)
Ceiling: at least 12,000 feet AGL
Clouds: few clouds at 2500 feet AGL
Weather: no significant weather observed at this time

METAR text: LIED 180655Z 12002KT 9999 FEW025 14/12 Q1018 RMK SCT SCT100 VIS MIN 9999 WIND THR35 /////KT WIND THR17 /////KT BLU
Conditions at: LIED (DECIMOMANNU(IT-A, IT) observed 0655 UTC 18 April 2019
Temperature: 14.0°C (57°F)
Dewpoint: 12.0°C (54°F) [RH = 88%]
Pressure (altimeter): 30.06 inches Hg (1018.0 mb)
Winds: from the ESE (120 degrees) at 2 MPH (2 knots; 1.0 m/s)
Visibility: 6 or more miles (10+ km)
Ceiling: at least 12,000 feet AGL
Clouds: few clouds at 2500 feet AGL
Weather: no significant weather observed at this time

METAR text: LIED 180555Z 06002KT 9999 FEW025 10/08 Q1019 RMK SCT SCT100 VIS MIN 9999 WIND THR35 /////KT WIND THR17 /////KT BLU
Conditions at: LIED (DECIMOMANNU(IT-A, IT) observed 0555 UTC 18 April 2019
Temperature: 10.0°C (50°F)
Dewpoint: 8.0°C (46°F) [RH = 87%]
Pressure (altimeter): 30.09 inches Hg (1019.0 mb)
Winds: from the ENE (60 degrees) at 2 MPH (2 knots; 1.0 m/s)
Visibility: 6 or more miles (10+ km)
Ceiling: at least 12,000 feet AGL
Clouds: few clouds at 2500 feet AGL
Weather: no significant weather observed at this time

METAR text: LIED 180455Z 06003KT 9999 FEW006 09/07 Q1018 RMK BKN BKN200 VIS MIN 9999 WIND THR35 /////KT WIND THR17 /////KT BLU
Conditions at: LIED (DECIMOMANNU(IT-A, IT) observed 0455 UTC 18 April 2019
Temperature: 9.0°C (48°F)
Dewpoint: 7.0°C (45°F) [RH = 87%]
Pressure (altimeter): 30.06 inches Hg (1018.0 mb)
Winds: from the ENE (60 degrees) at 3 MPH (3 knots; 1.5 m/s)
Visibility: 6 or more miles (10+ km)
Ceiling: at least 12,000 feet AGL
Clouds: few clouds at 600 feet AGL
Weather: no significant weather observed at this time

METAR text: LIED 180355Z 05004KT CAVOK 09/07 Q1018 RMK SCT SCT200 VIS MIN 9999 WIND THR35 /////KT WIND THR17 /////KT BLU
Conditions at: LIED (DECIMOMANNU(IT-A, IT) observed 0355 UTC 18 April 2019
Temperature: 9.0°C (48°F)
Dewpoint: 7.0°C (45°F) [RH = 87%]
Pressure (altimeter): 30.06 inches Hg (1018.0 mb)
Winds: from the NE (50 degrees) at 5 MPH (4 knots; 2.1 m/s)
Visibility: 6 or more miles (10+ km)
Ceiling: ceiling and visibility are OK
Clouds: unknown
Weather: no significant weather observed at this time

METAR text: LIED 180255Z 04002KT CAVOK 09/08 Q1018 RMK FEW FEW080 VIS MIN 9999 WIND THR35 /////KT WIND THR17 /////KT BLU
Conditions at: LIED (DECIMOMANNU(IT-A, IT) observed 0255 UTC 18 April 2019
Temperature: 9.0°C (48°F)
Dewpoint: 8.0°C (46°F) [RH = 93%]
Pressure (altimeter): 30.06 inches Hg (1018.0 mb)
Winds: from the NE (40 degrees) at 2 MPH (2 knots; 1.0 m/s)
Visibility: 6 or more miles (10+ km)
Ceiling: ceiling and visibility are OK
Clouds: unknown
Weather: no significant weather observed at this time

METAR text: LIED 180155Z 05003KT CAVOK 10/08 Q1018 RMK FEW FEW080 VIS MIN 9999 WIND THR35 /////KT WIND THR17 /////KT BLU
Conditions at: LIED (DECIMOMANNU(IT-A, IT) observed 0155 UTC 18 April 2019
Temperature: 10.0°C (50°F)
Dewpoint: 8.0°C (46°F) [RH = 87%]
Pressure (altimeter): 30.06 inches Hg (1018.0 mb)
Winds: from the NE (50 degrees) at 3 MPH (3 knots; 1.5 m/s)
Visibility: 6 or more miles (10+ km)
Ceiling: ceiling and visibility are OK
Clouds: unknown
Weather: no significant weather observed at this time

METAR text: LIED 180055Z 06005KT CAVOK 11/09 Q1019 RMK SKC VIS MIN 9999 WIND THR35 /////KT WIND THR17 /////KT BLU
Conditions at: LIED (DECIMOMANNU(IT-A, IT) observed 0055 UTC 18 April 2019
Temperature: 11.0°C (52°F)
Dewpoint: 9.0°C (48°F) [RH = 87%]
Pressure (altimeter): 30.09 inches Hg (1019.0 mb)
Winds: from the ENE (60 degrees) at 6 MPH (5 knots; 2.6 m/s)
Visibility: 6 or more miles (10+ km)
Ceiling: ceiling and visibility are OK
Clouds: unknown
Weather: no significant weather observed at this time

METAR text: LIED 172355Z 05003KT CAVOK 11/09 Q1019 RMK SKC VIS MIN 9999 WIND THR35 /////KT WIND THR17 /////KT BLU
Conditions at: LIED (DECIMOMANNU(IT-A, IT) observed 2355 UTC 17 April 2019
Temperature: 11.0°C (52°F)
Dewpoint: 9.0°C (48°F) [RH = 87%]
Pressure (altimeter): 30.09 inches Hg (1019.0 mb)
Winds: from the NE (50 degrees) at 3 MPH (3 knots; 1.5 m/s)
Visibility: 6 or more miles (10+ km)
Ceiling: ceiling and visibility are OK
Clouds: unknown
Weather: no significant weather observed at this time

METAR text: LIED 172255Z 05004KT 9999 FEW040 12/10 Q1019 RMK FEW VIS MIN 9999 WIND THR35 /////KT WIND THR17 /////KT BLU
Conditions at: LIED (DECIMOMANNU(IT-A, IT) observed 2255 UTC 17 April 2019
Temperature: 12.0°C (54°F)
Dewpoint: 10.0°C (50°F) [RH = 88%]
Pressure (altimeter): 30.09 inches Hg (1019.0 mb)
Winds: from the NE (50 degrees) at 5 MPH (4 knots; 2.1 m/s)
Visibility: 6 or more miles (10+ km)
Ceiling: at least 12,000 feet AGL
Clouds: few clouds at 4000 feet AGL
Weather: no significant weather observed at this time

METAR text: LIED 172155Z 14005KT CAVOK 13/11 Q1019 RMK SKC VIS MIN 9999 WIND THR35 /////KT WIND THR17 /////KT BLU
Conditions at: LIED (DECIMOMANNU(IT-A, IT) observed 2155 UTC 17 April 2019
Temperature: 13.0°C (55°F)
Dewpoint: 11.0°C (52°F) [RH = 88%]
Pressure (altimeter): 30.09 inches Hg (1019.0 mb)
Winds: from the SE (140 degrees) at 6 MPH (5 knots; 2.6 m/s)
Visibility: 6 or more miles (10+ km)
Ceiling: ceiling and visibility are OK
Clouds: unknown
Weather: no significant weather observed at this time

METAR text: LIED 172055Z 14004KT CAVOK 14/12 Q1019 RMK SKC VIS MIN 9999 WIND THR35 /////KT WIND THR17 /////KT BLU
Conditions at: LIED (DECIMOMANNU(IT-A, IT) observed 2055 UTC 17 April 2019
Temperature: 14.0°C (57°F)
Dewpoint: 12.0°C (54°F) [RH = 88%]
Pressure (altimeter): 30.09 inches Hg (1019.0 mb)
Winds: from the SE (140 degrees) at 5 MPH (4 knots; 2.1 m/s)
Visibility: 6 or more miles (10+ km)
Ceiling: ceiling and visibility are OK
Clouds: unknown
Weather: no significant weather observed at this time

METAR text: LIED 171955Z 17005KT CAVOK 14/12 Q1018 RMK SKC VIS MIN 9999 WIND THR35 /////KT WIND THR17 /////KT BLU
Conditions at: LIED (DECIMOMANNU(IT-A, IT) observed 1955 UTC 17 April 2019
Temperature: 14.0°C (57°F)
Dewpoint: 12.0°C (54°F) [RH = 88%]
Pressure (altimeter): 30.06 inches Hg (1018.0 mb)
Winds: from the S (170 degrees) at 6 MPH (5 knots; 2.6 m/s)
Visibility: 6 or more miles (10+ km)
Ceiling: ceiling and visibility are OK
Clouds: unknown
Weather: no significant weather observed at this time

METAR text: LIED 171855Z 16006KT 9999 FEW035 14/13 Q1018 RMK FEW VIS MIN 9999 WIND THR35 /////KT WIND THR17 /////KT BLU
Conditions at: LIED (DECIMOMANNU(IT-A, IT) observed 1855 UTC 17 April 2019
Temperature: 14.0°C (57°F)
Dewpoint: 13.0°C (55°F) [RH = 94%]
Pressure (altimeter): 30.06 inches Hg (1018.0 mb)
Winds: from the SSE (160 degrees) at 7 MPH (6 knots; 3.1 m/s)
Visibility: 6 or more miles (10+ km)
Ceiling: at least 12,000 feet AGL
Clouds: few clouds at 3500 feet AGL
Weather: no significant weather observed at this time

METAR text: LIED 171755Z 15009KT 9999 FEW035 16/15 Q1018 RMK FEW VIS MIN 9999 WIND THR35 /////KT WIND THR17 /////KT BLU
Conditions at: LIED (DECIMOMANNU(IT-A, IT) observed 1755 UTC 17 April 2019
Temperature: 16.0°C (61°F)
Dewpoint: 15.0°C (59°F) [RH = 94%]
Pressure (altimeter): 30.06 inches Hg (1018.0 mb)
Winds: from the SSE (150 degrees) at 10 MPH (9 knots; 4.6 m/s)
Visibility: 6 or more miles (10+ km)
Ceiling: at least 12,000 feet AGL
Clouds: few clouds at 3500 feet AGL
Weather: no significant weather observed at this time

METAR text: LIED 171655Z 14013KT 9999 FEW035 17/16 Q1018 RMK SCT SCT200 VIS MIN 9999 WIND THR35 /////KT WIND THR17 /////KT BLU
Conditions at: LIED (DECIMOMANNU(IT-A, IT) observed 1655 UTC 17 April 2019
Temperature: 17.0°C (63°F)
Dewpoint: 16.0°C (61°F) [RH = 94%]
Pressure (altimeter): 30.06 inches Hg (1018.0 mb)
Winds: from the SE (140 degrees) at 15 MPH (13 knots; 6.7 m/s)
Visibility: 6 or more miles (10+ km)
Ceiling: at least 12,000 feet AGL
Clouds: few clouds at 3500 feet AGL
Weather: no significant weather observed at this time

METAR text: LIED 171555Z 15014KT 9999 FEW035 18/16 Q1018 RMK SCT SCT200 VIS MIN 9999 WIND THR35 /////KT WIND THR17 /////KT BLU
Conditions at: LIED (DECIMOMANNU(IT-A, IT) observed 1555 UTC 17 April 2019
Temperature: 18.0°C (64°F)
Dewpoint: 16.0°C (61°F) [RH = 88%]
Pressure (altimeter): 30.06 inches Hg (1018.0 mb)
Winds: from the SSE (150 degrees) at 16 MPH (14 knots; 7.2 m/s)
Visibility: 6 or more miles (10+ km)
Ceiling: at least 12,000 feet AGL
Clouds: few clouds at 3500 feet AGL
Weather: no significant weather observed at this time

METAR text: LIED 171455Z 16013KT 9999 FEW035 19/17 Q1018 RMK SCT VIS MIN 9999 WIND THR35 /////KT WIND THR17 /////KT BLU
Conditions at: LIED (DECIMOMANNU(IT-A, IT) observed 1455 UTC 17 April 2019
Temperature: 19.0°C (66°F)
Dewpoint: 17.0°C (63°F) [RH = 88%]
Pressure (altimeter): 30.06 inches Hg (1018.0 mb)
Winds: from the SSE (160 degrees) at 15 MPH (13 knots; 6.7 m/s)
Visibility: 6 or more miles (10+ km)
Ceiling: at least 12,000 feet AGL
Clouds: few clouds at 3500 feet AGL
Weather: no significant weather observed at this time

METAR text: LIED 171355Z 14013KT 9999 FEW035 19/16 Q1018 RMK SCT VIS MIN 9999 WIND THR35 /////KT WIND THR17 /////KT BLU
Conditions at: LIED (DECIMOMANNU(IT-A, IT) observed 1355 UTC 17 April 2019
Temperature: 19.0°C (66°F)
Dewpoint: 16.0°C (61°F) [RH = 83%]
Pressure (altimeter): 30.06 inches Hg (1018.0 mb)
Winds: from the SE (140 degrees) at 15 MPH (13 knots; 6.7 m/s)
Visibility: 6 or more miles (10+ km)
Ceiling: at least 12,000 feet AGL
Clouds: few clouds at 3500 feet AGL
Weather: no significant weather observed at this time

METAR text: LIED 171255Z 16012KT 9999 FEW040 20/16 Q1018 RMK FEW VIS MIN 9999 WIND THR35 /////KT WIND THR17 /////KT BLU
Conditions at: LIED (DECIMOMANNU(IT-A, IT) observed 1255 UTC 17 April 2019
Temperature: 20.0°C (68°F)
Dewpoint: 16.0°C (61°F) [RH = 78%]
Pressure (altimeter): 30.06 inches Hg (1018.0 mb)
Winds: from the SSE (160 degrees) at 14 MPH (12 knots; 6.2 m/s)
Visibility: 6 or more miles (10+ km)
Ceiling: at least 12,000 feet AGL
Clouds: few clouds at 4000 feet AGL
Weather: no significant weather observed at this time

METAR text: LIED 171155Z 15010KT 9999 FEW040 20/16 Q1018 RMK FEW VIS MIN 9999 WIND THR35 /////KT WIND THR17 /////KT BLU
Conditions at: LIED (DECIMOMANNU(IT-A, IT) observed 1155 UTC 17 April 2019
Temperature: 20.0°C (68°F)
Dewpoint: 16.0°C (61°F) [RH = 78%]
Pressure (altimeter): 30.06 inches Hg (1018.0 mb)
Winds: from the SSE (150 degrees) at 12 MPH (10 knots; 5.1 m/s)
Visibility: 6 or more miles (10+ km)
Ceiling: at least 12,000 feet AGL
Clouds: few clouds at 4000 feet AGL
Weather: no significant weather observed at this time

METAR text: LIED 171055Z 15008KT 9999 SCT040 20/12 Q1019 RMK SCT VIS MIN 9999 WIND THR35 /////KT WIND THR17 /////KT BLU
Conditions at: LIED (DECIMOMANNU(IT-A, IT) observed 1055 UTC 17 April 2019
Temperature: 20.0°C (68°F)
Dewpoint: 12.0°C (54°F) [RH = 60%]
Pressure (altimeter): 30.09 inches Hg (1019.0 mb)
Winds: from the SSE (150 degrees) at 9 MPH (8 knots; 4.1 m/s)
Visibility: 6 or more miles (10+ km)
Ceiling: at least 12,000 feet AGL
Clouds: scattered clouds at 4000 feet AGL
Weather: no significant weather observed at this time

METAR text: LIED 170955Z 16005KT 9999 FEW040 20/13 Q1019 RMK FEW VIS MIN 9999 WIND THR35 /////KT WIND THR17 /////KT BLU
Conditions at: LIED (DECIMOMANNU(IT-A, IT) observed 0955 UTC 17 April 2019
Temperature: 20.0°C (68°F)
Dewpoint: 13.0°C (55°F) [RH = 64%]
Pressure (altimeter): 30.09 inches Hg (1019.0 mb)
Winds: from the SSE (160 degrees) at 6 MPH (5 knots; 2.6 m/s)
Visibility: 6 or more miles (10+ km)
Ceiling: at least 12,000 feet AGL
Clouds: few clouds at 4000 feet AGL
Weather: no significant weather observed at this time

METAR text: LIED 170855Z 18003KT CAVOK 18/13 Q1019 RMK SKC VIS MIN 9999 WIND THR35 /////KT WIND THR17 /////KT BLU
Conditions at: LIED (DECIMOMANNU(IT-A, IT) observed 0855 UTC 17 April 2019
Temperature: 18.0°C (64°F)
Dewpoint: 13.0°C (55°F) [RH = 73%]
Pressure (altimeter): 30.09 inches Hg (1019.0 mb)
Winds: from the S (180 degrees) at 3 MPH (3 knots; 1.5 m/s)
Visibility: 6 or more miles (10+ km)
Ceiling: ceiling and visibility are OK
Clouds: unknown
Weather: no significant weather observed at this time

METAR text: LIED 170755Z 28002KT CAVOK 15/13 Q1019 RMK SKC VIS MIN 9999 WIND THR35 /////KT WIND THR17 /////KT BLU
Conditions at: LIED (DECIMOMANNU(IT-A, IT) observed 0755 UTC 17 April 2019
Temperature: 15.0°C (59°F)
Dewpoint: 13.0°C (55°F) [RH = 88%]
Pressure (altimeter): 30.09 inches Hg (1019.0 mb)
Winds: from the W (280 degrees) at 2 MPH (2 knots; 1.0 m/s)
Visibility: 6 or more miles (10+ km)
Ceiling: ceiling and visibility are OK
Clouds: unknown
Weather: no significant weather observed at this time

METAR text: LIED 170655Z VRB01KT 9999 FEW006 11/09 Q1019 RMK FEW VIS MIN 9999 WIND THR35 /////KT WIND THR17 /////KT BLU
Conditions at: LIED (DECIMOMANNU(IT-A, IT) observed 0655 UTC 17 April 2019
Temperature: 11.0°C (52°F)
Dewpoint: 9.0°C (48°F) [RH = 87%]
Pressure (altimeter): 30.09 inches Hg (1019.0 mb)
Winds: variable direction winds at 1 MPH (1 knots; 0.5 m/s)
Visibility: 6 or more miles (10+ km)
Ceiling: at least 12,000 feet AGL
Clouds: few clouds at 600 feet AGL
Weather: no significant weather observed at this time